createdAt,value
2023-05-03T00:01:02.224Z,13.93
2023-05-03T00:03:52.701Z,13.84
2023-05-03T00:06:40.476Z,13.76
2023-05-03T00:09:28.135Z,13.51
2023-05-03T00:12:15.743Z,13.46
2023-05-03T00:15:03.283Z,13.60
2023-05-03T00:17:51.442Z,13.46
2023-05-03T00:20:39.065Z,13.36
2023-05-03T00:23:28.302Z,13.24
2023-05-03T00:26:15.809Z,13.25
2023-05-03T00:29:03.577Z,13.31
2023-05-03T00:31:51.074Z,13.25
2023-05-03T00:34:39.095Z,13.32
2023-05-03T00:37:27.012Z,13.35
2023-05-03T00:40:18.585Z,13.40
2023-05-03T00:43:06.483Z,13.21
2023-05-03T00:45:59.374Z,13.18
2023-05-03T00:48:56.177Z,13.42
2023-05-03T00:51:43.738Z,13.28
2023-05-03T00:54:33.137Z,13.19
2023-05-03T00:57:22.606Z,13.16
2023-05-03T01:00:10.789Z,13.21
2023-05-03T01:02:58.568Z,13.15
2023-05-03T01:06:13.854Z,12.90
2023-05-03T01:09:13.795Z,12.94
2023-05-03T01:12:01.136Z,12.95
2023-05-03T01:15:10.452Z,13.00
2023-05-03T01:18:03.297Z,13.00
2023-05-03T01:20:51.833Z,12.97
2023-05-03T01:23:47.083Z,12.83
2023-05-03T01:26:34.713Z,12.90
2023-05-03T01:29:22.281Z,12.99
2023-05-03T01:32:16.249Z,12.93
2023-05-03T01:35:21.203Z,12.96
2023-05-03T01:38:09.637Z,12.60
2023-05-03T01:41:01.714Z,12.32
2023-05-03T01:43:49.720Z,12.57
2023-05-03T01:46:44.691Z,12.66
2023-05-03T01:49:33.264Z,12.48
2023-05-03T01:52:20.841Z,12.04
2023-05-03T01:55:08.744Z,11.77
2023-05-03T01:57:56.195Z,11.96
2023-05-03T02:00:45.662Z,11.91
2023-05-03T02:03:33.453Z,11.82
2023-05-03T02:06:21.039Z,11.79
2023-05-03T02:09:08.677Z,11.69
2023-05-03T02:12:08.320Z,11.66
2023-05-03T02:14:56.516Z,11.76
2023-05-03T02:17:45.487Z,11.56
2023-05-03T02:20:37.704Z,11.59
2023-05-03T02:23:25.316Z,11.57
2023-05-03T02:26:14.910Z,11.58
2023-05-03T02:29:03.934Z,11.55
2023-05-03T02:31:53.632Z,12.01
2023-05-03T02:34:41.665Z,12.04
2023-05-03T02:37:31.574Z,11.62
2023-05-03T02:40:21.730Z,11.21
2023-05-03T02:43:09.968Z,11.63
2023-05-03T02:45:57.777Z,11.46
2023-05-03T02:48:46.654Z,11.52
2023-05-03T02:51:35.756Z,11.59
2023-05-03T02:54:23.736Z,11.44
2023-05-03T02:57:14.086Z,11.46
2023-05-03T03:00:02.142Z,11.46
2023-05-03T03:02:50.363Z,11.70
2023-05-03T03:05:38.179Z,11.55
2023-05-03T03:08:25.852Z,11.56
2023-05-03T03:11:15.863Z,11.37
2023-05-03T03:14:03.383Z,11.10
2023-05-03T03:16:51.866Z,11.05
2023-05-03T03:19:39.387Z,11.26
2023-05-03T03:22:26.936Z,11.19
2023-05-03T03:25:14.448Z,11.13
2023-05-03T03:28:02.033Z,11.15
2023-05-03T03:30:50.923Z,11.13
2023-05-03T03:33:43.268Z,11.04
2023-05-03T03:36:38.029Z,11.11
2023-05-03T03:39:25.899Z,11.34
2023-05-03T03:42:14.740Z,11.08
2023-05-03T03:45:03.148Z,11.02
2023-05-03T03:47:51.583Z,11.23
2023-05-03T03:50:42.743Z,11.31
2023-05-03T03:53:31.534Z,11.20
2023-05-03T03:56:19.046Z,11.23
2023-05-03T03:59:09.156Z,11.19
2023-05-03T04:01:56.965Z,10.86
2023-05-03T04:04:44.751Z,11.02
2023-05-03T04:07:32.387Z,11.12
2023-05-03T04:10:20.143Z,10.98
2023-05-03T04:13:07.629Z,10.72
2023-05-03T04:15:56.890Z,10.35
2023-05-03T04:18:45.540Z,10.70
2023-05-03T04:21:33.209Z,10.58
2023-05-03T04:24:21.262Z,10.57
2023-05-03T04:27:09.842Z,10.64
2023-05-03T04:30:00.322Z,10.45
2023-05-03T04:32:48.164Z,10.61
2023-05-03T04:35:36.256Z,10.57
2023-05-03T04:38:29.041Z,10.82
2023-05-03T04:41:19.059Z,10.83
2023-05-03T04:44:08.112Z,10.72
2023-05-03T04:46:56.255Z,10.67
2023-05-03T04:49:47.154Z,10.57
2023-05-03T04:52:35.064Z,10.42
2023-05-03T04:55:22.659Z,10.46
2023-05-03T04:58:10.438Z,10.12
2023-05-03T05:00:59.120Z,10.36
2023-05-03T05:03:50.022Z,10.41
2023-05-03T05:06:42.392Z,10.48
2023-05-03T05:09:33.577Z,10.71
2023-05-03T05:12:23.506Z,10.76
2023-05-03T05:15:11.483Z,10.56
2023-05-03T05:18:00.235Z,10.83
2023-05-03T05:20:48.055Z,10.69
2023-05-03T05:23:36.414Z,10.72
2023-05-03T05:26:26.075Z,10.76
2023-05-03T05:29:13.689Z,10.79
2023-05-03T05:32:03.366Z,10.80
2023-05-03T05:34:55.359Z,10.81
2023-05-03T05:37:45.014Z,10.96
2023-05-03T05:40:33.724Z,10.88
2023-05-03T05:43:22.384Z,10.94
2023-05-03T05:46:10.331Z,10.88
2023-05-03T05:48:57.921Z,10.99
2023-05-03T05:51:45.830Z,11.15
2023-05-03T05:54:33.659Z,11.18
2023-05-03T05:57:21.246Z,10.95
2023-05-03T06:00:14.920Z,11.22
2023-05-03T06:03:04.603Z,11.19
2023-05-03T06:05:52.212Z,11.36
2023-05-03T06:08:41.045Z,11.42
2023-05-03T06:11:29.548Z,11.53
2023-05-03T06:14:19.367Z,11.33
2023-05-03T06:17:07.436Z,11.49
2023-05-03T06:19:54.953Z,11.38
2023-05-03T06:22:42.485Z,11.24
2023-05-03T06:25:31.657Z,11.44
2023-05-03T06:28:19.328Z,11.28
2023-05-03T06:31:06.849Z,11.25
2023-05-03T06:33:54.401Z,11.48
2023-05-03T06:36:41.990Z,11.66
2023-05-03T06:39:29.709Z,11.77
2023-05-03T06:42:17.689Z,11.70
2023-05-03T06:45:06.125Z,11.85
2023-05-03T06:47:53.664Z,11.85
2023-05-03T06:50:41.276Z,11.79
2023-05-03T06:53:29.615Z,12.00
2023-05-03T06:56:17.047Z,11.90
2023-05-03T06:59:04.748Z,11.72
2023-05-03T07:01:52.376Z,11.76
2023-05-03T07:04:39.984Z,12.30
2023-05-03T07:07:27.980Z,12.25
2023-05-03T07:10:15.557Z,12.29
2023-05-03T07:13:03.063Z,12.59
2023-05-03T07:15:50.754Z,12.52
2023-05-03T07:18:38.242Z,12.87
2023-05-03T07:21:26.981Z,12.96
2023-05-03T07:24:14.801Z,12.99
2023-05-03T07:27:02.334Z,12.64
2023-05-03T07:29:49.866Z,12.65
2023-05-03T07:32:37.642Z,12.78
2023-05-03T07:35:26.868Z,12.68
2023-05-03T07:38:14.656Z,12.96
2023-05-03T07:41:02.320Z,13.26
2023-05-03T07:43:50.012Z,12.98
2023-05-03T07:46:37.486Z,13.22
2023-05-03T07:49:25.097Z,12.74
2023-05-03T07:52:12.587Z,12.85
2023-05-03T07:55:00.306Z,13.45
2023-05-03T07:57:47.794Z,13.45
2023-05-03T08:00:35.481Z,13.73
2023-05-03T08:03:23.905Z,13.51
2023-05-03T08:06:12.040Z,13.74
2023-05-03T08:08:59.645Z,13.67
2023-05-03T08:11:47.306Z,13.52
2023-05-03T08:14:36.670Z,13.54
2023-05-03T08:17:24.308Z,13.76
2023-05-03T08:20:13.402Z,13.99
2023-05-03T08:23:01.679Z,14.14
2023-05-03T08:25:49.286Z,14.25
2023-05-03T08:28:36.921Z,14.21
2023-05-03T08:31:24.675Z,13.93
2023-05-03T08:34:13.194Z,14.21
2023-05-03T08:37:01.341Z,14.39
2023-05-03T08:39:48.873Z,14.19
2023-05-03T08:42:39.203Z,14.16
2023-05-03T08:45:26.661Z,14.35
2023-05-03T08:48:14.431Z,14.50
2023-05-03T08:51:04.751Z,14.63
2023-05-03T08:53:52.609Z,14.27
2023-05-03T08:56:42.425Z,14.78
2023-05-03T08:59:30.361Z,14.93
2023-05-03T09:02:18.089Z,15.12
2023-05-03T09:05:15.605Z,14.96
2023-05-03T09:08:10.093Z,15.11
2023-05-03T09:10:58.019Z,15.24
2023-05-03T09:13:45.727Z,15.18
2023-05-03T09:16:33.438Z,15.34
2023-05-03T09:19:21.644Z,15.29
2023-05-03T09:22:09.161Z,15.59
2023-05-03T09:24:58.669Z,15.43
2023-05-03T09:28:01.200Z,15.23
2023-05-03T09:30:49.650Z,15.44
2023-05-03T09:33:37.426Z,15.74
2023-05-03T09:36:25.224Z,15.64
2023-05-03T09:39:19.269Z,15.54
2023-05-03T09:42:16.663Z,15.50
2023-05-03T09:45:05.049Z,15.63
2023-05-03T09:47:55.723Z,15.62
2023-05-03T09:50:43.645Z,15.65
2023-05-03T09:53:32.730Z,15.43
2023-05-03T09:56:22.726Z,15.55
2023-05-03T09:59:10.349Z,15.64
2023-05-03T10:01:59.870Z,15.77
2023-05-03T10:04:52.572Z,15.78
2023-05-03T10:07:41.003Z,15.82
2023-05-03T10:10:31.026Z,15.85
2023-05-03T10:13:18.752Z,15.72
2023-05-03T10:16:13.886Z,15.91
2023-05-03T10:19:12.045Z,16.17
2023-05-03T10:22:08.847Z,16.35
2023-05-03T10:25:02.986Z,16.30
2023-05-03T10:27:52.475Z,16.26
2023-05-03T10:30:40.424Z,16.28
2023-05-03T10:33:32.708Z,16.46
2023-05-03T10:36:20.342Z,16.46
2023-05-03T10:39:14.563Z,16.36
2023-05-03T10:42:03.842Z,16.57
2023-05-03T10:44:55.219Z,16.53
2023-05-03T10:47:42.857Z,16.52
2023-05-03T10:50:30.650Z,16.67
2023-05-03T10:53:37.547Z,16.98
2023-05-03T10:56:25.041Z,16.95
2023-05-03T10:59:12.546Z,17.10
2023-05-03T11:02:00.518Z,17.11
2023-05-03T11:04:48.379Z,17.28
2023-05-03T11:07:35.904Z,17.31
2023-05-03T11:10:23.744Z,17.28
2023-05-03T11:13:12.142Z,17.40
2023-05-03T11:16:00.943Z,17.31
2023-05-03T11:18:48.813Z,17.43
2023-05-03T11:21:36.437Z,17.38
2023-05-03T11:24:23.968Z,17.50
2023-05-03T11:27:13.983Z,17.40
2023-05-03T11:30:01.421Z,17.56
2023-05-03T11:32:49.862Z,17.71
2023-05-03T11:35:37.786Z,17.65
2023-05-03T11:38:25.997Z,17.74
2023-05-03T11:41:18.943Z,17.53
2023-05-03T11:44:16.243Z,17.72
2023-05-03T11:47:05.628Z,17.85
2023-05-03T11:49:57.821Z,17.96
2023-05-03T11:52:46.501Z,17.97
2023-05-03T11:55:34.555Z,17.73
2023-05-03T11:58:24.935Z,17.76
2023-05-03T12:01:12.502Z,17.92
2023-05-03T12:04:05.443Z,18.18
2023-05-03T12:06:54.566Z,18.13
2023-05-03T12:09:45.580Z,18.04
2023-05-03T12:12:42.448Z,18.16
2023-05-03T12:15:33.880Z,18.55
2023-05-03T12:18:22.043Z,18.68
2023-05-03T12:21:30.783Z,18.46
2023-05-03T12:24:20.525Z,18.64
2023-05-03T12:27:08.757Z,18.82
2023-05-03T12:32:44.587Z,19.12
2023-05-03T12:35:34.236Z,19.34
2023-05-03T12:38:24.301Z,19.52
2023-05-03T12:41:15.712Z,19.50
2023-05-03T12:44:03.639Z,19.71
2023-05-03T12:46:53.211Z,19.33
2023-05-03T12:49:45.778Z,19.39
2023-05-03T12:52:37.842Z,19.24
2023-05-03T12:55:27.029Z,19.37
2023-05-03T12:58:40.471Z,19.50
2023-05-03T13:02:18.616Z,19.64
2023-05-03T13:07:32.040Z,19.46
2023-05-03T13:13:13.552Z,19.64
2023-05-03T13:16:02.063Z,19.73
2023-05-03T13:18:54.997Z,20.02
2023-05-03T13:21:42.888Z,19.97
2023-05-03T13:24:30.453Z,19.84
2023-05-03T13:27:18.264Z,19.67
2023-05-03T13:30:06.609Z,19.66
2023-05-03T13:32:54.153Z,19.57
2023-05-03T13:35:41.738Z,19.50
2023-05-03T13:38:29.267Z,19.69
2023-05-03T13:41:17.257Z,19.92
2023-05-03T13:44:05.044Z,20.33
2023-05-03T13:46:52.832Z,20.43
2023-05-03T13:49:40.716Z,20.46
2023-05-03T13:52:28.232Z,20.61
2023-05-03T13:55:15.684Z,21.02
2023-05-03T13:58:03.164Z,21.07
2023-05-03T14:00:50.785Z,20.76
2023-05-03T14:03:38.260Z,20.85
2023-05-03T14:06:25.942Z,21.00
2023-05-03T14:09:13.973Z,21.02
2023-05-03T14:12:03.089Z,21.01
2023-05-03T14:14:50.700Z,20.79
2023-05-03T14:17:38.511Z,20.54
2023-05-03T14:20:25.955Z,20.51
2023-05-03T14:23:13.561Z,20.66
2023-05-03T14:26:02.286Z,20.81
2023-05-03T14:28:49.847Z,20.81
2023-05-03T14:31:37.597Z,21.21
2023-05-03T14:34:25.294Z,21.41
2023-05-03T14:37:12.996Z,20.90
2023-05-03T14:40:00.706Z,21.16
2023-05-03T14:42:48.942Z,21.24
2023-05-03T14:45:36.616Z,21.12
2023-05-03T14:48:24.148Z,20.87
2023-05-03T14:51:11.679Z,21.17
2023-05-03T14:53:59.433Z,21.33
2023-05-03T14:56:47.082Z,20.95
2023-05-03T14:59:34.596Z,20.89
2023-05-03T15:02:22.782Z,21.04
2023-05-03T15:05:11.133Z,20.53
2023-05-03T15:08:00.056Z,20.44
2023-05-03T15:10:47.825Z,20.73
2023-05-03T15:13:35.758Z,20.94
2023-05-03T15:16:23.562Z,20.66
2023-05-03T15:19:11.163Z,20.77
2023-05-03T15:21:59.009Z,21.14
2023-05-03T15:24:47.116Z,21.00
2023-05-03T15:27:34.614Z,20.83
2023-05-03T15:30:22.217Z,20.95
2023-05-03T15:33:11.977Z,21.06
2023-05-03T15:35:59.514Z,20.97
2023-05-03T15:38:50.257Z,20.92
2023-05-03T15:41:37.924Z,21.14
2023-05-03T15:44:25.569Z,21.24
2023-05-03T15:47:13.071Z,21.33
2023-05-03T15:50:02.070Z,21.35
2023-05-03T15:52:49.935Z,21.19
2023-05-03T15:55:37.790Z,20.89
2023-05-03T15:58:26.157Z,21.25
2023-05-03T16:01:14.047Z,21.44
2023-05-03T16:04:01.657Z,21.41
2023-05-03T16:06:49.099Z,21.41
2023-05-03T16:09:36.846Z,21.56
2023-05-03T16:12:24.589Z,21.44
2023-05-03T16:15:12.315Z,21.47
2023-05-03T16:17:59.905Z,21.66
2023-05-03T16:20:48.655Z,21.54
2023-05-03T16:23:36.257Z,21.20
2023-05-03T16:26:24.138Z,21.15
2023-05-03T16:29:11.734Z,21.01
2023-05-03T16:31:59.368Z,21.36
2023-05-03T16:34:48.479Z,21.45
2023-05-03T16:37:38.065Z,21.55
2023-05-03T16:40:25.627Z,21.49
2023-05-03T16:43:15.502Z,21.29
2023-05-03T16:46:03.144Z,21.01
2023-05-03T16:48:50.773Z,21.14
2023-05-03T16:51:39.684Z,21.05
2023-05-03T16:54:27.786Z,21.15
2023-05-03T16:57:15.219Z,21.21
2023-05-03T17:00:09.567Z,21.22
2023-05-03T17:02:57.572Z,21.39
2023-05-03T17:05:45.173Z,21.04
2023-05-03T17:08:33.057Z,20.93
2023-05-03T17:11:22.383Z,20.85
2023-05-03T17:14:09.947Z,20.69
2023-05-03T17:16:57.640Z,20.92
2023-05-03T17:19:45.237Z,21.03
2023-05-03T17:22:32.999Z,20.66
2023-05-03T17:25:21.221Z,20.62
2023-05-03T17:28:09.600Z,20.68
2023-05-03T17:30:57.369Z,20.63
2023-05-03T17:33:45.746Z,20.46
2023-05-03T17:36:33.898Z,20.42
2023-05-03T17:39:21.490Z,20.46
2023-05-03T17:42:09.333Z,20.45
2023-05-03T17:44:57.948Z,20.19
2023-05-03T17:47:46.036Z,20.32
2023-05-03T17:50:33.577Z,20.28
2023-05-03T17:53:21.093Z,20.12
2023-05-03T17:56:15.973Z,20.09
2023-05-03T17:59:03.677Z,20.16
2023-05-03T18:01:51.236Z,20.08
2023-05-03T18:04:39.197Z,20.00
2023-05-03T18:07:27.369Z,20.19
2023-05-03T18:10:17.452Z,20.26
2023-05-03T18:13:05.092Z,20.17
2023-05-03T18:15:52.933Z,20.14
2023-05-03T18:18:40.485Z,20.02
2023-05-03T18:21:28.890Z,20.13
2023-05-03T18:24:16.556Z,19.84
2023-05-03T18:27:04.253Z,19.72
2023-05-03T18:29:51.901Z,19.87
2023-05-03T18:32:39.695Z,19.68
2023-05-03T18:35:27.133Z,19.50
2023-05-03T18:38:14.780Z,19.42
2023-05-03T18:41:02.419Z,19.35
2023-05-03T18:43:51.974Z,19.40
2023-05-03T18:46:39.626Z,19.50
2023-05-03T18:49:27.432Z,19.52
2023-05-03T18:52:15.241Z,19.34
2023-05-03T18:55:02.875Z,19.29
2023-05-03T18:57:50.479Z,19.08
2023-05-03T19:00:38.268Z,19.07
2023-05-03T19:03:29.782Z,19.32
2023-05-03T19:06:17.906Z,19.24
2023-05-03T19:09:05.349Z,19.18
2023-05-03T19:11:52.912Z,19.21
2023-05-03T19:14:41.338Z,18.96
2023-05-03T19:17:28.960Z,18.86
2023-05-03T19:20:17.393Z,18.96
2023-05-03T19:23:04.931Z,18.98
2023-05-03T19:25:52.600Z,18.91
2023-05-03T19:28:40.377Z,18.89
2023-05-03T19:31:27.985Z,19.02
2023-05-03T19:34:15.632Z,19.01
2023-05-03T19:37:03.113Z,18.98
2023-05-03T19:39:50.755Z,18.99
2023-05-03T19:42:38.565Z,18.88
2023-05-03T19:45:26.027Z,19.02
2023-05-03T19:48:15.973Z,18.89
2023-05-03T19:51:05.681Z,18.98
2023-05-03T19:53:53.303Z,19.14
2023-05-03T19:56:40.771Z,19.14
2023-05-03T19:59:29.344Z,19.24
2023-05-03T20:02:18.453Z,19.13
2023-05-03T20:05:07.081Z,19.19
2023-05-03T20:07:54.633Z,19.07
2023-05-03T20:10:44.733Z,19.23
2023-05-03T20:13:33.966Z,19.21
2023-05-03T20:16:21.951Z,19.18
2023-05-03T20:19:09.742Z,18.92
2023-05-03T20:21:57.526Z,18.81
2023-05-03T20:24:45.055Z,18.70
2023-05-03T20:27:32.598Z,18.75
2023-05-03T20:30:20.165Z,18.87
2023-05-03T20:33:07.938Z,18.61
2023-05-03T20:35:55.480Z,18.75
2023-05-03T20:38:43.100Z,18.69
2023-05-03T20:41:31.450Z,18.64
2023-05-03T20:44:19.000Z,18.58
2023-05-03T20:47:06.536Z,18.47
2023-05-03T20:49:54.008Z,18.36
2023-05-03T20:52:41.513Z,18.56
2023-05-03T20:55:29.007Z,18.50
2023-05-03T20:58:16.648Z,18.45
2023-05-03T21:01:05.328Z,18.53
2023-05-03T21:03:52.910Z,18.53
2023-05-03T21:06:41.194Z,18.32
2023-05-03T21:09:30.459Z,18.07
2023-05-03T21:12:18.065Z,17.99
2023-05-03T21:15:06.042Z,18.24
2023-05-03T21:17:53.638Z,18.23
2023-05-03T21:20:41.128Z,18.20
2023-05-03T21:23:28.632Z,18.19
2023-05-03T21:26:16.330Z,18.23
2023-05-03T21:29:04.125Z,17.96
2023-05-03T21:31:51.901Z,18.06
2023-05-03T21:34:39.390Z,18.11
2023-05-03T21:37:27.039Z,18.12
2023-05-03T21:40:15.300Z,18.22
2023-05-03T21:43:04.309Z,18.18
2023-05-03T21:45:51.920Z,18.03
2023-05-03T21:48:40.295Z,18.01
2023-05-03T21:51:30.722Z,17.82
2023-05-03T21:54:19.143Z,17.56
2023-05-03T21:57:06.684Z,17.61
2023-05-03T21:59:55.394Z,17.69
2023-05-03T22:02:43.060Z,17.53
2023-05-03T22:05:30.986Z,17.48
2023-05-03T22:08:18.633Z,17.49
2023-05-03T22:11:07.071Z,17.62
2023-05-03T22:14:05.969Z,17.54
2023-05-03T22:16:55.038Z,17.34
2023-05-03T22:19:42.761Z,17.21
2023-05-03T22:22:30.429Z,17.28
2023-05-03T22:25:24.824Z,17.26
2023-05-03T22:28:12.841Z,17.25
2023-05-03T22:31:00.537Z,16.98
2023-05-03T22:33:49.024Z,16.89
2023-05-03T22:36:36.549Z,17.01
2023-05-03T22:39:24.162Z,17.27
2023-05-03T22:42:11.651Z,16.97
2023-05-03T22:44:59.205Z,17.05
2023-05-03T22:47:46.821Z,17.09
2023-05-03T22:50:34.397Z,17.16
2023-05-03T22:53:22.081Z,16.92
2023-05-03T22:56:09.591Z,17.20
2023-05-03T22:58:57.045Z,17.07
2023-05-03T23:01:46.136Z,17.06
2023-05-03T23:04:33.806Z,17.09
2023-05-03T23:07:21.506Z,17.40
2023-05-03T23:10:09.791Z,17.25
2023-05-03T23:12:57.573Z,17.23
2023-05-03T23:15:45.129Z,17.07
2023-05-03T23:18:32.806Z,17.10
2023-05-03T23:21:20.656Z,17.26
2023-05-03T23:24:08.378Z,17.24
2023-05-03T23:26:55.819Z,17.05
2023-05-03T23:29:43.502Z,17.08
2023-05-03T23:32:31.445Z,16.95
2023-05-03T23:35:20.776Z,16.95
2023-05-03T23:38:08.430Z,17.09
2023-05-03T23:40:55.981Z,17.06
2023-05-03T23:43:43.508Z,16.91
2023-05-03T23:46:33.741Z,16.95
2023-05-03T23:49:21.577Z,17.11
2023-05-03T23:52:09.926Z,17.23
2023-05-03T23:54:57.429Z,17.20
2023-05-03T23:57:44.988Z,17.45
